createdAt,value
2023-05-14T00:01:56.317Z,100673.27
2023-05-14T00:04:24.718Z,100670.33
2023-05-14T00:06:53.095Z,100670.60
2023-05-14T00:09:21.440Z,100669.83
2023-05-14T00:11:49.862Z,100667.77
2023-05-14T00:14:18.259Z,100665.63
2023-05-14T00:16:46.815Z,100662.80
2023-05-14T00:19:15.191Z,100661.72
2023-05-14T00:21:43.556Z,100659.32
2023-05-14T00:24:12.017Z,100655.57
2023-05-14T00:26:40.513Z,100655.43
2023-05-14T00:29:08.890Z,100659.16
2023-05-14T00:31:37.301Z,100657.67
2023-05-14T00:34:06.220Z,100656.10
2023-05-14T00:36:34.579Z,100658.86
2023-05-14T00:39:03.780Z,100661.57
2023-05-14T00:41:32.180Z,100659.99
2023-05-14T00:44:00.588Z,100658.23
2023-05-14T00:46:29.153Z,100656.02
2023-05-14T00:48:58.751Z,100660.23
2023-05-14T00:51:27.332Z,100657.15
2023-05-14T00:53:55.861Z,100661.23
2023-05-14T00:56:24.917Z,100657.48
2023-05-14T00:58:53.347Z,100656.66
2023-05-14T01:01:21.992Z,100654.42
2023-05-14T01:03:53.450Z,100651.19
2023-05-14T01:06:52.004Z,100647.92
2023-05-14T01:09:32.611Z,100650.67
2023-05-14T01:12:15.301Z,100649.06
2023-05-14T01:15:01.295Z,100649.77
2023-05-14T01:17:33.192Z,100650.73
2023-05-14T01:20:02.423Z,100648.05
2023-05-14T01:22:30.765Z,100643.42
2023-05-14T01:24:59.337Z,100635.80
2023-05-14T01:28:05.626Z,100641.56
2023-05-14T01:31:17.911Z,100645.36
2023-05-14T01:33:49.356Z,100641.38
2023-05-14T01:36:18.212Z,100648.61
2023-05-14T01:38:49.446Z,100648.48
2023-05-14T01:41:19.429Z,100644.56
2023-05-14T01:43:48.026Z,100643.19
2023-05-14T01:46:19.733Z,100643.57
2023-05-14T01:48:48.208Z,100644.50
2023-05-14T01:51:16.871Z,100644.39
2023-05-14T01:53:45.349Z,100644.37
2023-05-14T01:56:13.749Z,100645.95
2023-05-14T01:58:42.115Z,100643.88
2023-05-14T02:01:10.571Z,100645.08
2023-05-14T02:03:38.954Z,100643.69
2023-05-14T02:06:07.534Z,100638.38
2023-05-14T02:08:35.886Z,100634.98
2023-05-14T02:11:04.331Z,100631.67
2023-05-14T02:13:32.717Z,100630.35
2023-05-14T02:16:01.077Z,100631.29
2023-05-14T02:18:29.506Z,100626.17
2023-05-14T02:20:57.926Z,100623.17
2023-05-14T02:23:37.903Z,100626.09
2023-05-14T02:26:11.352Z,100622.44
2023-05-14T02:28:39.878Z,100622.05
2023-05-14T02:31:08.311Z,100622.46
2023-05-14T02:33:36.949Z,100624.25
2023-05-14T02:36:05.709Z,100626.55
2023-05-14T02:38:34.136Z,100630.40
2023-05-14T02:41:02.672Z,100633.20
2023-05-14T02:43:31.143Z,100632.60
2023-05-14T02:45:59.602Z,100630.27
2023-05-14T02:48:28.057Z,100628.92
2023-05-14T02:50:56.413Z,100630.99
2023-05-14T02:53:24.834Z,100628.23
2023-05-14T02:55:53.193Z,100623.46
2023-05-14T02:58:25.760Z,100620.77
2023-05-14T03:00:57.045Z,100623.74
2023-05-14T03:03:25.981Z,100625.04
2023-05-14T03:05:54.532Z,100624.29
2023-05-14T03:08:23.222Z,100626.10
2023-05-14T03:10:51.599Z,100621.81
2023-05-14T03:13:20.819Z,100622.52
2023-05-14T03:15:49.475Z,100623.23
2023-05-14T03:18:17.896Z,100624.46
2023-05-14T03:20:46.387Z,100621.92
2023-05-14T03:23:15.248Z,100627.67
2023-05-14T03:25:43.580Z,100624.31
2023-05-14T03:28:12.040Z,100625.05
2023-05-14T03:30:40.430Z,100624.40
2023-05-14T03:33:08.908Z,100622.04
2023-05-14T03:35:37.262Z,100621.08
2023-05-14T03:38:05.863Z,100622.77
2023-05-14T03:40:34.305Z,100622.88
2023-05-14T03:43:02.680Z,100620.36
2023-05-14T03:45:31.134Z,100617.48
2023-05-14T03:47:59.616Z,100619.04
2023-05-14T03:50:28.273Z,100618.97
2023-05-14T03:52:56.610Z,100621.61
2023-05-14T03:55:25.044Z,100620.06
2023-05-14T03:57:53.380Z,100618.16
2023-05-14T04:00:22.002Z,100614.48
2023-05-14T04:02:50.711Z,100612.23
2023-05-14T04:05:19.235Z,100611.98
2023-05-14T04:07:47.626Z,100608.20
2023-05-14T04:10:15.964Z,100616.73
2023-05-14T04:12:44.414Z,100615.30
2023-05-14T04:15:12.792Z,100611.63
2023-05-14T04:17:41.255Z,100608.36
2023-05-14T04:20:10.289Z,100605.13
2023-05-14T04:22:42.243Z,100601.61
2023-05-14T04:25:10.790Z,100604.63
2023-05-14T04:27:39.198Z,100600.86
2023-05-14T04:30:08.606Z,100602.52
2023-05-14T04:32:36.981Z,100605.33
2023-05-14T04:35:07.262Z,100606.73
2023-05-14T04:37:35.818Z,100609.54
2023-05-14T04:40:08.214Z,100608.58
2023-05-14T04:42:37.028Z,100608.81
2023-05-14T04:45:07.131Z,100603.08
2023-05-14T04:47:36.094Z,100599.70
2023-05-14T04:50:05.259Z,100598.34
2023-05-14T04:52:33.541Z,100596.52
2023-05-14T04:55:02.031Z,100590.27
2023-05-14T04:57:30.346Z,100590.41
2023-05-14T04:59:58.660Z,100587.84
2023-05-14T05:02:27.017Z,100586.75
2023-05-14T05:04:55.417Z,100585.63
2023-05-14T05:07:24.785Z,100584.82
2023-05-14T05:09:53.131Z,100579.50
2023-05-14T05:12:21.537Z,100576.42
2023-05-14T05:14:49.838Z,100582.42
2023-05-14T05:17:18.157Z,100580.70
2023-05-14T05:19:46.667Z,100578.73
2023-05-14T05:22:15.142Z,100579.98
2023-05-14T05:24:43.652Z,100579.87
2023-05-14T05:27:12.899Z,100580.98
2023-05-14T05:29:41.264Z,100579.35
2023-05-14T05:32:09.641Z,100580.70
2023-05-14T05:34:38.002Z,100577.05
2023-05-14T05:37:06.530Z,100578.81
2023-05-14T05:39:35.212Z,100577.22
2023-05-14T05:42:05.942Z,100573.80
2023-05-14T05:44:34.599Z,100571.38
2023-05-14T05:47:03.069Z,100566.34
2023-05-14T05:49:31.769Z,100566.41
2023-05-14T05:52:00.248Z,100569.80
2023-05-14T05:54:28.529Z,100567.90
2023-05-14T05:56:56.849Z,100569.94
2023-05-14T05:59:25.626Z,100569.20
2023-05-14T06:01:54.052Z,100568.27
2023-05-14T06:04:22.475Z,100565.60
2023-05-14T06:06:50.898Z,100566.48
2023-05-14T06:09:19.300Z,100569.86
2023-05-14T06:11:47.720Z,100566.64
2023-05-14T06:14:16.026Z,100566.19
2023-05-14T06:16:44.576Z,100565.10
2023-05-14T06:19:12.953Z,100565.25
2023-05-14T06:21:41.498Z,100567.07
2023-05-14T06:24:10.288Z,100560.05
2023-05-14T06:26:38.676Z,100560.22
2023-05-14T06:29:07.181Z,100560.10
2023-05-14T06:31:35.638Z,100561.43
2023-05-14T06:34:04.030Z,100561.06
2023-05-14T06:36:32.514Z,100559.93
2023-05-14T06:41:32.661Z,100553.23
2023-05-14T06:44:01.061Z,100557.52
2023-05-14T06:46:29.393Z,100557.19
2023-05-14T06:48:59.529Z,100554.48
2023-05-14T06:51:28.180Z,100554.36
2023-05-14T06:54:00.795Z,100549.10
2023-05-14T06:56:32.025Z,100543.92
2023-05-14T06:59:03.603Z,100539.58
2023-05-14T07:01:32.911Z,100532.19
2023-05-14T07:04:03.198Z,100525.20
2023-05-14T07:06:32.646Z,100520.42
2023-05-14T07:09:04.249Z,100518.83
2023-05-14T07:11:33.742Z,100516.48
2023-05-14T07:14:03.035Z,100516.91
2023-05-14T07:16:40.424Z,100513.30
2023-05-14T07:19:09.080Z,100507.39
2023-05-14T07:21:37.965Z,100509.66
2023-05-14T07:24:08.085Z,100507.55
2023-05-14T07:26:36.555Z,100506.93
2023-05-14T07:29:05.030Z,100503.65
2023-05-14T07:31:34.080Z,100504.67
2023-05-14T07:34:03.056Z,100500.30
2023-05-14T07:36:32.106Z,100506.42
2023-05-14T07:39:00.752Z,100503.19
2023-05-14T07:41:29.229Z,100497.69
2023-05-14T07:43:57.603Z,100498.54
2023-05-14T07:46:26.289Z,100491.50
2023-05-14T07:48:54.724Z,100489.30
2023-05-14T07:51:24.082Z,100492.19
2023-05-14T07:53:52.457Z,100492.84
2023-05-14T07:56:24.118Z,100489.02
2023-05-14T07:58:52.763Z,100489.30
2023-05-14T08:01:23.039Z,100491.10
2023-05-14T08:03:51.492Z,100489.42
2023-05-14T08:06:21.900Z,100486.93
2023-05-14T08:08:50.284Z,100479.09
2023-05-14T08:11:18.857Z,100479.35
2023-05-14T08:13:47.258Z,100481.25
2023-05-14T08:16:15.748Z,100481.62
2023-05-14T08:18:44.125Z,100479.26
2023-05-14T08:21:12.601Z,100478.58
2023-05-14T08:23:41.015Z,100478.13
2023-05-14T08:26:09.499Z,100474.09
2023-05-14T08:28:37.830Z,100472.78
2023-05-14T08:31:06.534Z,100468.66
2023-05-14T08:33:34.855Z,100466.60
2023-05-14T08:36:03.649Z,100464.35
2023-05-14T08:38:32.210Z,100461.25
2023-05-14T08:41:00.640Z,100457.35
2023-05-14T08:44:13.502Z,100457.08
2023-05-14T08:46:42.265Z,100457.14
2023-05-14T08:49:47.220Z,100456.79
2023-05-14T08:52:18.180Z,100456.34
2023-05-14T08:54:50.753Z,100452.69
2023-05-14T08:57:25.823Z,100444.59
2023-05-14T08:59:54.442Z,100442.63
2023-05-14T09:02:30.158Z,100437.73
2023-05-14T09:05:01.892Z,100436.63
2023-05-14T09:07:30.314Z,100430.74
2023-05-14T09:09:59.818Z,100433.15
2023-05-14T09:12:28.517Z,100427.23
2023-05-14T09:14:57.125Z,100423.53
2023-05-14T09:17:27.909Z,100422.45
2023-05-14T09:19:56.396Z,100421.51
2023-05-14T09:22:24.806Z,100419.46
2023-05-14T09:25:05.913Z,100417.45
2023-05-14T09:27:35.512Z,100415.38
2023-05-14T09:30:13.070Z,100413.06
2023-05-14T09:32:44.548Z,100404.48
2023-05-14T09:35:23.088Z,100398.95
2023-05-14T09:37:54.126Z,100394.76
2023-05-14T09:40:24.485Z,100393.88
2023-05-14T09:42:53.382Z,100394.44
2023-05-14T09:45:21.943Z,100390.07
2023-05-14T09:47:50.482Z,100383.20
2023-05-14T09:50:18.881Z,100381.68
2023-05-14T09:52:47.817Z,100384.62
2023-05-14T09:55:16.303Z,100380.56
2023-05-14T09:57:45.104Z,100376.36
2023-05-14T10:00:14.393Z,100376.53
2023-05-14T10:02:45.855Z,100368.67
2023-05-14T10:05:15.966Z,100366.05
2023-05-14T10:07:49.528Z,100359.79
2023-05-14T10:10:27.212Z,100357.99
2023-05-14T10:13:05.757Z,100359.77
2023-05-14T10:15:41.651Z,100357.63
2023-05-14T10:18:16.220Z,100357.23
2023-05-14T10:20:48.658Z,100358.38
2023-05-14T10:23:17.775Z,100357.30
2023-05-14T10:25:46.490Z,100351.45
2023-05-14T10:28:15.020Z,100345.09
2023-05-14T10:30:46.984Z,100345.17
2023-05-14T10:33:51.060Z,100339.92
2023-05-14T10:36:20.569Z,100338.37
2023-05-14T10:38:57.086Z,100332.90
2023-05-14T10:41:25.799Z,100328.73
2023-05-14T10:43:57.484Z,100326.03
2023-05-14T10:46:25.892Z,100323.67
2023-05-14T10:48:54.236Z,100321.35
2023-05-14T10:51:23.452Z,100319.25
2023-05-14T10:53:52.570Z,100321.90
2023-05-14T10:56:21.550Z,100320.58
2023-05-14T10:58:50.044Z,100317.58
2023-05-14T11:01:18.416Z,100315.94
2023-05-14T11:03:47.148Z,100313.25
2023-05-14T11:06:16.447Z,100315.58
2023-05-14T11:08:46.450Z,100313.60
2023-05-14T11:11:15.058Z,100312.02
2023-05-14T11:13:44.682Z,100309.20
2023-05-14T11:16:23.361Z,100305.86
2023-05-14T11:19:03.967Z,100303.98
2023-05-14T11:21:32.939Z,100308.94
2023-05-14T11:24:01.682Z,100307.66
2023-05-14T11:26:31.805Z,100305.95
2023-05-14T11:29:00.181Z,100298.83
2023-05-14T11:31:28.549Z,100293.83
2023-05-14T11:33:56.981Z,100290.70
2023-05-14T11:36:25.313Z,100286.61
2023-05-14T11:38:53.634Z,100282.93
2023-05-14T11:41:23.156Z,100280.85
2023-05-14T11:43:52.535Z,100283.92
2023-05-14T11:46:21.724Z,100283.19
2023-05-14T11:48:50.749Z,100284.10
2023-05-14T11:51:19.119Z,100284.26
2023-05-14T11:53:47.562Z,100284.04
2023-05-14T11:56:16.301Z,100279.61
2023-05-14T11:58:49.186Z,100277.14
2023-05-14T12:01:17.614Z,100267.52
2023-05-14T12:03:46.149Z,100262.98
2023-05-14T12:06:15.029Z,100260.54
2023-05-14T12:08:43.329Z,100258.48
2023-05-14T12:11:14.128Z,100260.88
2023-05-14T12:13:42.417Z,100258.36
2023-05-14T12:16:10.930Z,100259.71
2023-05-14T12:18:39.330Z,100258.65
2023-05-14T12:21:08.630Z,100252.11
2023-05-14T12:23:38.898Z,100252.68
2023-05-14T12:26:09.440Z,100250.73
2023-05-14T12:28:43.359Z,100249.64
2023-05-14T12:31:12.036Z,100245.67
2023-05-14T12:33:40.534Z,100246.67
2023-05-14T12:36:21.423Z,100244.27
2023-05-14T12:38:56.883Z,100246.08
2023-05-14T12:41:25.199Z,100238.80
2023-05-14T12:43:53.728Z,100242.47
2023-05-14T12:46:22.327Z,100243.14
2023-05-14T12:48:53.186Z,100243.44
2023-05-14T12:51:22.588Z,100242.31
2023-05-14T12:53:52.194Z,100236.12
2023-05-14T12:56:22.091Z,100234.48
2023-05-14T12:58:50.483Z,100234.80
2023-05-14T13:01:19.024Z,100236.64
2023-05-14T13:03:47.608Z,100231.61
2023-05-14T13:06:16.307Z,100224.69
2023-05-14T13:08:44.834Z,100226.92
2023-05-14T13:11:13.359Z,100225.30
2023-05-14T13:13:41.688Z,100224.40
2023-05-14T13:16:10.209Z,100223.10
2023-05-14T13:18:38.551Z,100222.04
2023-05-14T13:21:07.015Z,100214.80
2023-05-14T13:23:35.709Z,100213.17
2023-05-14T13:26:04.394Z,100214.80
2023-05-14T13:28:32.789Z,100218.60
2023-05-14T13:31:06.991Z,100216.13
2023-05-14T13:33:43.994Z,100213.14
2023-05-14T13:36:15.197Z,100209.32
2023-05-14T13:38:45.846Z,100204.70
2023-05-14T13:41:14.242Z,100204.14
2023-05-14T13:43:42.589Z,100207.17
2023-05-14T13:46:11.005Z,100201.84
2023-05-14T13:48:39.420Z,100202.81
2023-05-14T13:51:07.831Z,100196.91
2023-05-14T13:53:36.404Z,100195.03
2023-05-14T13:56:06.516Z,100192.84
2023-05-14T13:58:34.977Z,100190.54
2023-05-14T14:01:04.685Z,100187.95
2023-05-14T14:03:34.183Z,100187.15
2023-05-14T14:06:02.485Z,100185.00
2023-05-14T14:08:31.239Z,100185.48
2023-05-14T14:10:59.587Z,100185.10
2023-05-14T14:13:29.463Z,100179.84
2023-05-14T14:15:57.905Z,100177.80
2023-05-14T14:18:26.871Z,100175.98
2023-05-14T14:20:55.454Z,100179.83
2023-05-14T14:23:23.940Z,100175.55
2023-05-14T14:25:52.334Z,100172.79
2023-05-14T14:28:20.774Z,100173.23
2023-05-14T14:30:50.525Z,100172.30
2023-05-14T14:33:18.858Z,100168.54
2023-05-14T14:35:47.416Z,100162.41
2023-05-14T14:38:15.855Z,100157.02
2023-05-14T14:40:44.478Z,100156.34
2023-05-14T14:43:12.996Z,100155.59
2023-05-14T14:45:42.877Z,100153.56
2023-05-14T14:48:37.305Z,100151.02
2023-05-14T14:51:07.991Z,100148.26
2023-05-14T14:53:37.205Z,100147.31
2023-05-14T14:56:06.576Z,100144.05
2023-05-14T14:58:35.008Z,100144.80
2023-05-14T15:01:03.864Z,100140.55
2023-05-14T15:03:32.554Z,100135.77
2023-05-14T15:06:01.119Z,100133.95
2023-05-14T15:08:29.497Z,100133.20
2023-05-14T15:10:58.033Z,100132.52
2023-05-14T15:13:29.325Z,100124.98
2023-05-14T15:15:57.792Z,100123.67
2023-05-14T15:18:26.507Z,100121.79
2023-05-14T15:20:56.007Z,100121.48
2023-05-14T15:23:24.608Z,100117.39
2023-05-14T15:25:53.036Z,100117.10
2023-05-14T15:28:21.396Z,100117.84
2023-05-14T15:30:49.849Z,100115.48
2023-05-14T15:33:19.376Z,100109.69
2023-05-14T15:35:48.055Z,100106.31
2023-05-14T15:38:16.526Z,100105.55
2023-05-14T15:40:44.941Z,100099.64
2023-05-14T15:43:13.340Z,100092.62
2023-05-14T15:45:45.622Z,100086.23
2023-05-14T15:48:14.102Z,100085.34
2023-05-14T15:50:42.649Z,100084.14
2023-05-14T15:53:10.979Z,100083.42
2023-05-14T15:58:50.649Z,100082.13
2023-05-14T16:01:19.783Z,100081.94
2023-05-14T16:03:48.300Z,100079.77
2023-05-14T16:06:17.155Z,100075.02
2023-05-14T16:08:45.535Z,100070.73
2023-05-14T16:11:13.900Z,100070.90
2023-05-14T16:13:42.289Z,100070.45
2023-05-14T16:16:10.845Z,100066.06
2023-05-14T16:18:40.402Z,100061.20
2023-05-14T16:21:08.922Z,100055.02
2023-05-14T16:23:37.274Z,100054.05
2023-05-14T16:26:06.522Z,100051.27
2023-05-14T16:28:34.943Z,100051.98
2023-05-14T16:31:03.842Z,100056.25
2023-05-14T16:33:32.271Z,100055.04
2023-05-14T16:36:00.690Z,100053.31
2023-05-14T16:38:30.912Z,100053.73
2023-05-14T16:40:59.276Z,100049.98
2023-05-14T16:43:27.638Z,100052.94
2023-05-14T16:45:56.027Z,100051.20
2023-05-14T16:48:25.991Z,100046.21
2023-05-14T16:50:56.049Z,100046.38
2023-05-14T16:53:24.592Z,100050.88
2023-05-14T16:55:53.080Z,100058.64
2023-05-14T16:58:21.714Z,100057.58
2023-05-14T17:00:50.116Z,100056.71
2023-05-14T17:03:18.652Z,100052.46
2023-05-14T17:05:49.784Z,100048.39
2023-05-14T17:08:18.240Z,100045.67
2023-05-14T17:10:46.782Z,100048.27
2023-05-14T17:13:15.192Z,100049.05
2023-05-14T17:16:02.076Z,100046.41
2023-05-14T17:18:30.670Z,100047.16
2023-05-14T17:20:59.257Z,100047.59
2023-05-14T17:23:30.127Z,100043.76
2023-05-14T17:25:58.645Z,100049.48
2023-05-14T17:28:28.470Z,100047.94
2023-05-14T17:30:57.421Z,100045.92
2023-05-14T17:33:38.584Z,100046.94
2023-05-14T17:36:40.940Z,100043.06
2023-05-14T17:39:09.549Z,100041.89
2023-05-14T17:41:38.031Z,100040.51
2023-05-14T17:44:06.579Z,100039.98
2023-05-14T17:46:36.702Z,100035.98
2023-05-14T17:49:05.123Z,100034.52
2023-05-14T17:51:33.628Z,100028.02
2023-05-14T17:54:02.060Z,100031.48
2023-05-14T17:56:30.461Z,100030.14
2023-05-14T17:58:59.263Z,100028.05
2023-05-14T18:01:31.894Z,100022.27
2023-05-14T18:04:00.376Z,100020.70
2023-05-14T18:06:28.808Z,100017.56
2023-05-14T18:08:57.300Z,100016.26
2023-05-14T18:11:26.556Z,100012.14
2023-05-14T18:13:55.730Z,100011.88
2023-05-14T18:16:24.469Z,100014.23
2023-05-14T18:18:53.576Z,100009.83
2023-05-14T18:21:22.873Z,100009.77
2023-05-14T18:23:51.264Z,100009.15
2023-05-14T18:26:19.942Z,100007.58
2023-05-14T18:28:48.456Z,100009.16
2023-05-14T18:31:16.838Z,100006.36
2023-05-14T18:33:45.529Z,100006.97
2023-05-14T18:36:14.091Z,100001.27
2023-05-14T18:38:42.634Z,100002.63
2023-05-14T18:41:11.337Z,100002.05
2023-05-14T18:43:39.929Z,100001.50
2023-05-14T18:46:09.113Z,99999.30
2023-05-14T18:48:37.984Z,100000.23
2023-05-14T18:51:06.394Z,100001.86
2023-05-14T18:53:37.939Z,100005.20
2023-05-14T18:56:06.748Z,100007.57
2023-05-14T18:58:35.326Z,100006.00
2023-05-14T19:01:03.712Z,100004.75
2023-05-14T19:03:32.170Z,100004.14
2023-05-14T19:06:00.739Z,100012.39
2023-05-14T19:08:29.123Z,100018.77
2023-05-14T19:10:57.500Z,100027.94
2023-05-14T19:13:28.664Z,100033.07
2023-05-14T19:15:57.105Z,100046.17
2023-05-14T19:18:25.563Z,100048.46
2023-05-14T19:20:53.979Z,100051.25
2023-05-14T19:23:22.483Z,100041.37
2023-05-14T19:25:50.976Z,100014.81
2023-05-14T19:28:19.968Z,100020.24
2023-05-14T19:30:50.862Z,100008.46
2023-05-14T19:33:19.323Z,100001.91
2023-05-14T19:35:47.723Z,100009.42
2023-05-14T19:38:16.179Z,100008.02
2023-05-14T19:40:45.195Z,99995.90
2023-05-14T19:43:13.718Z,99991.37
2023-05-14T19:45:42.791Z,99982.73
2023-05-14T19:48:12.592Z,99982.02
2023-05-14T19:50:41.652Z,99979.64
2023-05-14T19:53:10.047Z,99980.09
2023-05-14T19:55:38.502Z,99975.86
2023-05-14T19:58:06.851Z,99974.98
2023-05-14T20:00:37.069Z,99981.59
2023-05-14T20:03:05.976Z,99990.95
2023-05-14T20:05:35.289Z,99987.11
2023-05-14T20:08:06.610Z,99958.59
2023-05-14T20:10:35.051Z,99948.66
2023-05-14T20:13:03.622Z,99952.90
2023-05-14T20:15:31.981Z,99960.08
2023-05-14T20:18:01.156Z,99955.52
2023-05-14T20:20:32.866Z,99951.51
2023-05-14T20:23:02.137Z,99948.63
2023-05-14T20:25:32.806Z,99951.53
2023-05-14T20:28:01.576Z,99949.44
2023-05-14T20:30:30.106Z,99947.95
2023-05-14T20:32:58.591Z,99942.13
2023-05-14T20:35:29.957Z,99947.15
2023-05-14T20:37:58.774Z,99950.42
2023-05-14T20:40:27.501Z,99943.81
2023-05-14T20:42:55.831Z,99937.71
2023-05-14T20:45:24.287Z,99931.40
2023-05-14T20:47:53.028Z,99926.44
2023-05-14T20:50:22.662Z,99919.85
2023-05-14T20:52:51.129Z,99918.55
2023-05-14T20:55:19.835Z,99917.29
2023-05-14T20:57:49.659Z,99920.92
2023-05-14T21:00:18.799Z,99936.17
2023-05-14T21:02:49.354Z,99953.39
2023-05-14T21:05:18.089Z,99966.67
2023-05-14T21:07:46.407Z,99988.09
2023-05-14T21:10:14.843Z,99996.98
2023-05-14T21:12:44.722Z,99991.46
2023-05-14T21:15:13.282Z,99989.67
2023-05-14T21:17:43.875Z,99984.94
2023-05-14T21:20:13.585Z,99983.20
2023-05-14T21:22:41.886Z,99976.04
2023-05-14T21:25:11.111Z,99976.23
2023-05-14T21:27:39.499Z,99970.98
2023-05-14T21:30:08.833Z,99963.55
2023-05-14T21:32:37.234Z,99964.54
2023-05-14T21:35:06.134Z,99960.61
2023-05-14T21:37:34.524Z,99960.85
2023-05-14T21:40:02.893Z,99957.90
2023-05-14T21:42:31.214Z,99957.20
2023-05-14T21:44:59.628Z,99948.36
2023-05-14T21:47:28.203Z,99942.21
2023-05-14T21:49:56.653Z,99942.29
2023-05-14T21:52:25.155Z,99940.06
2023-05-14T21:54:53.537Z,99943.33
2023-05-14T21:57:22.655Z,99938.89
2023-05-14T21:59:50.970Z,99933.86
2023-05-14T22:02:19.504Z,99929.08
2023-05-14T22:04:47.902Z,99926.64
2023-05-14T22:07:19.445Z,99922.66
2023-05-14T22:09:48.147Z,99918.98
2023-05-14T22:12:16.535Z,99913.05
2023-05-14T22:14:46.304Z,99912.39
2023-05-14T22:17:14.750Z,99903.58
2023-05-14T22:19:43.075Z,99898.45
2023-05-14T22:22:11.485Z,99895.83
2023-05-14T22:24:39.845Z,99891.26
2023-05-14T22:27:08.304Z,99889.96
2023-05-14T22:29:38.154Z,99886.60
2023-05-14T22:32:08.193Z,99882.41
2023-05-14T22:34:37.450Z,99872.66
2023-05-14T22:37:06.043Z,99871.65
2023-05-14T22:39:34.861Z,99867.73
2023-05-14T22:42:03.367Z,99865.73
2023-05-14T22:44:31.709Z,99865.41
2023-05-14T22:47:00.084Z,99865.66
2023-05-14T22:49:28.554Z,99864.52
2023-05-14T22:51:56.905Z,99864.98
2023-05-14T22:54:25.343Z,99863.38
2023-05-14T22:56:54.207Z,99856.34
2023-05-14T22:59:23.685Z,99853.03
2023-05-14T23:01:52.545Z,99848.54
2023-05-14T23:04:21.059Z,99844.27
2023-05-14T23:06:49.764Z,99842.61
2023-05-14T23:09:18.126Z,99839.18
2023-05-14T23:11:46.700Z,99834.79
2023-05-14T23:14:15.328Z,99834.35
2023-05-14T23:16:44.326Z,99826.04
2023-05-14T23:19:13.049Z,99816.48
2023-05-14T23:21:41.535Z,99809.81
2023-05-14T23:24:10.011Z,99799.05
2023-05-14T23:26:38.577Z,99796.09
2023-05-14T23:29:07.115Z,99797.27
2023-05-14T23:31:36.647Z,99792.88
2023-05-14T23:34:05.150Z,99784.50
2023-05-14T23:36:33.992Z,99783.55
2023-05-14T23:39:02.392Z,99780.73
2023-05-14T23:41:30.916Z,99773.70
2023-05-14T23:43:59.224Z,99770.52
2023-05-14T23:46:27.970Z,99767.58
2023-05-14T23:48:57.138Z,99760.44
2023-05-14T23:51:27.537Z,99744.79
2023-05-14T23:53:58.506Z,99736.30
2023-05-14T23:56:29.354Z,99727.39
2023-05-14T23:58:57.782Z,99715.42
